sensor_id;sensor_type;location;lat;lon;timestamp;pressure;altitude;pressure_sealevel;temperature;humidity
54882;BME280;40775;51.448;4.742;2022-09-27T00:01:10;99750.13;;;13.27;82.40
54882;BME280;40775;51.448;4.742;2022-09-27T00:03:39;99765.94;;;13.26;82.35
54882;BME280;40775;51.448;4.742;2022-09-27T00:06:25;99745.78;;;13.23;82.25
54882;BME280;40775;51.448;4.742;2022-09-27T00:08:53;99745.78;;;13.20;82.11
54882;BME280;40775;51.448;4.742;2022-09-27T00:11:31;99748.44;;;13.20;82.05
54882;BME280;40775;51.448;4.742;2022-09-27T00:13:59;99750.22;;;13.18;82.05
54882;BME280;40775;51.448;4.742;2022-09-27T00:16:31;99736.16;;;13.15;81.69
54882;BME280;40775;51.448;4.742;2022-09-27T00:19:00;99726.47;;;13.17;81.64
54882;BME280;40775;51.448;4.742;2022-09-27T00:21:29;99732.63;;;13.16;81.43
54882;BME280;40775;51.448;4.742;2022-09-27T00:23:58;99734.38;;;13.12;81.51
54882;BME280;40775;51.448;4.742;2022-09-27T00:26:26;99736.13;;;13.13;81.77
54882;BME280;40775;51.448;4.742;2022-09-27T00:28:54;99740.56;;;13.10;81.91
54882;BME280;40775;51.448;4.742;2022-09-27T00:31:27;99758.16;;;13.06;81.46
54882;BME280;40775;51.448;4.742;2022-09-27T00:33:58;99763.41;;;13.06;81.34
54882;BME280;40775;51.448;4.742;2022-09-27T00:36:26;99763.41;;;13.06;80.95
54882;BME280;40775;51.448;4.742;2022-09-27T00:38:55;99761.63;;;13.10;80.92
54882;BME280;40775;51.448;4.742;2022-09-27T00:41:33;99759.03;;;13.07;81.38
54882;BME280;40775;51.448;4.742;2022-09-27T00:47:29;99754.66;;;13.04;81.43
54882;BME280;40775;51.448;4.742;2022-09-27T00:50:40;99759.09;;;12.99;81.24
54882;BME280;40775;51.448;4.742;2022-09-27T00:55:56;99785.44;;;12.99;81.24
54882;BME280;40775;51.448;4.742;2022-09-27T00:58:35;99792.44;;;13.03;81.38
54882;BME280;40775;51.448;4.742;2022-09-27T01:01:06;99789.81;;;12.98;81.44
54882;BME280;40775;51.448;4.742;2022-09-27T01:03:54;99781.00;;;13.04;81.41
54882;BME280;40775;51.448;4.742;2022-09-27T01:06:23;99764.31;;;13.05;81.92
54882;BME280;40775;51.448;4.742;2022-09-27T01:08:50;99766.94;;;13.05;81.66
54882;BME280;40775;51.448;4.742;2022-09-27T01:11:41;99761.69;;;13.04;81.89
54882;BME280;40775;51.448;4.742;2022-09-27T01:14:40;99760.84;;;13.00;82.06
54882;BME280;40775;51.448;4.742;2022-09-27T01:23:11;99754.69;;;12.99;81.73
54882;BME280;40775;51.448;4.742;2022-09-27T01:32:51;99758.25;;;12.92;81.86
54882;BME280;40775;51.448;4.742;2022-09-27T01:35:28;99758.25;;;12.94;81.32
54882;BME280;40775;51.448;4.742;2022-09-27T01:44:08;99780.25;;;12.90;81.43
54882;BME280;40775;51.448;4.742;2022-09-27T01:46:53;99795.16;;;12.89;81.61
54882;BME280;40775;51.448;4.742;2022-09-27T01:49:44;99808.31;;;12.91;81.91
54882;BME280;40775;51.448;4.742;2022-09-27T01:52:19;99791.66;;;12.89;81.69
54882;BME280;40775;51.448;4.742;2022-09-27T01:54:53;99789.91;;;12.88;81.96
54882;BME280;40775;51.448;4.742;2022-09-27T01:57:38;99791.66;;;12.90;81.89
54882;BME280;40775;51.448;4.742;2022-09-27T02:00:10;99789.91;;;12.85;81.62
54882;BME280;40775;51.448;4.742;2022-09-27T02:02:43;99805.69;;;12.85;81.50
54882;BME280;40775;51.448;4.742;2022-09-27T02:05:12;99789.91;;;12.83;81.22
54882;BME280;40775;51.448;4.742;2022-09-27T02:07:47;99797.81;;;12.85;81.67
54882;BME280;40775;51.448;4.742;2022-09-27T02:10:31;99810.13;;;12.80;81.12
54882;BME280;40775;51.448;4.742;2022-09-27T02:15:54;99808.38;;;12.79;81.41
54882;BME280;40775;51.448;4.742;2022-09-27T02:18:33;99799.59;;;12.80;81.29
54882;BME280;40775;51.448;4.742;2022-09-27T02:21:07;99796.13;;;12.73;81.49
54882;BME280;40775;51.448;4.742;2022-09-27T02:23:51;99794.38;;;12.74;81.44
54882;BME280;40775;51.448;4.742;2022-09-27T02:26:39;99798.75;;;12.75;81.65
54882;BME280;40775;51.448;4.742;2022-09-27T02:29:34;99804.88;;;12.75;81.33
54882;BME280;40775;51.448;4.742;2022-09-27T02:32:04;99804.91;;;12.74;81.50
54882;BME280;40775;51.448;4.742;2022-09-27T02:34:32;99792.63;;;12.73;81.38
54882;BME280;40775;51.448;4.742;2022-09-27T02:37:02;99791.75;;;12.72;81.63
54882;BME280;40775;51.448;4.742;2022-09-27T02:39:29;99797.03;;;12.71;81.50
54882;BME280;40775;51.448;4.742;2022-09-27T02:41:56;99798.78;;;12.68;81.82
54882;BME280;40775;51.448;4.742;2022-09-27T02:44:26;99803.16;;;12.69;81.97
54882;BME280;40775;51.448;4.742;2022-09-27T02:52:58;99808.47;;;12.65;81.73
54882;BME280;40775;51.448;4.742;2022-09-27T02:55:39;99811.97;;;12.65;81.55
54882;BME280;40775;51.448;4.742;2022-09-27T03:00:51;99793.53;;;12.67;81.55
54882;BME280;40775;51.448;4.742;2022-09-27T03:03:34;99793.56;;;12.62;81.73
54882;BME280;40775;51.448;4.742;2022-09-27T03:06:13;99793.53;;;12.65;81.57
54882;BME280;40775;51.448;4.742;2022-09-27T03:08:41;99794.41;;;12.64;81.38
54882;BME280;40775;51.448;4.742;2022-09-27T03:11:09;99791.78;;;12.64;81.33
54882;BME280;40775;51.448;4.742;2022-09-27T03:13:36;99803.22;;;12.63;81.38
54882;BME280;40775;51.448;4.742;2022-09-27T03:16:24;99824.25;;;12.63;81.67
54882;BME280;40775;51.448;4.742;2022-09-27T03:18:51;99833.03;;;12.64;81.38
54882;BME280;40775;51.448;4.742;2022-09-27T03:21:18;99823.38;;;12.58;81.68
54882;BME280;40775;51.448;4.742;2022-09-27T03:23:46;99811.09;;;12.57;81.69
54882;BME280;40775;51.448;4.742;2022-09-27T03:26:13;99799.72;;;12.55;81.49
54882;BME280;40775;51.448;4.742;2022-09-27T03:28:40;99786.59;;;12.49;81.42
54882;BME280;40775;51.448;4.742;2022-09-27T03:31:07;99790.06;;;12.53;81.63
54882;BME280;40775;51.448;4.742;2022-09-27T03:33:34;99780.44;;;12.50;81.64
54882;BME280;40775;51.448;4.742;2022-09-27T03:36:01;99772.53;;;12.52;81.53
54882;BME280;40775;51.448;4.742;2022-09-27T03:38:29;99764.63;;;12.50;81.07
54882;BME280;40775;51.448;4.742;2022-09-27T03:40:57;99769.03;;;12.50;81.60
54882;BME280;40775;51.448;4.742;2022-09-27T03:43:24;99774.31;;;12.48;81.14
54882;BME280;40775;51.448;4.742;2022-09-27T03:45:51;99784.81;;;12.50;81.38
54882;BME280;40775;51.448;4.742;2022-09-27T03:48:19;99783.09;;;12.46;81.03
54882;BME280;40775;51.448;4.742;2022-09-27T03:50:53;99794.50;;;12.45;81.12
54882;BME280;40775;51.448;4.742;2022-09-27T03:53:20;99802.41;;;12.45;81.01
54882;BME280;40775;51.448;4.742;2022-09-27T03:55:47;99812.94;;;12.45;80.94
54882;BME280;40775;51.448;4.742;2022-09-27T03:58:14;99814.69;;;12.44;80.58
54882;BME280;40775;51.448;4.742;2022-09-27T04:00:42;99819.94;;;12.46;80.67
54882;BME280;40775;51.448;4.742;2022-09-27T04:03:11;99830.44;;;12.50;80.68
54882;BME280;40775;51.448;4.742;2022-09-27T04:05:39;99833.97;;;12.46;80.74
54882;BME280;40775;51.448;4.742;2022-09-27T04:08:06;99834.88;;;12.42;80.48
54882;BME280;40775;51.448;4.742;2022-09-27T04:10:33;99824.34;;;12.42;80.17
54882;BME280;40775;51.448;4.742;2022-09-27T04:13:03;99826.09;;;12.40;80.08
54882;BME280;40775;51.448;4.742;2022-09-27T04:15:31;99823.50;;;12.37;80.23
54882;BME280;40775;51.448;4.742;2022-09-27T04:17:58;99830.50;;;12.38;80.01
54882;BME280;40775;51.448;4.742;2022-09-27T04:20:25;99830.50;;;12.32;80.76
54882;BME280;40775;51.448;4.742;2022-09-27T04:22:52;99837.53;;;12.36;80.47
54882;BME280;40775;51.448;4.742;2022-09-27T04:25:19;99828.75;;;12.32;80.90
54882;BME280;40775;51.448;4.742;2022-09-27T04:27:46;99816.50;;;12.33;81.00
54882;BME280;40775;51.448;4.742;2022-09-27T04:30:14;99812.09;;;12.33;81.02
54882;BME280;40775;51.448;4.742;2022-09-27T04:32:43;99814.72;;;12.35;80.83
54882;BME280;40775;51.448;4.742;2022-09-27T04:35:12;99791.91;;;12.35;81.20
54882;BME280;40775;51.448;4.742;2022-09-27T04:37:59;99785.78;;;12.35;81.00
54882;BME280;40775;51.448;4.742;2022-09-27T04:40:26;99780.50;;;12.32;81.00
54882;BME280;40775;51.448;4.742;2022-09-27T04:42:55;99786.66;;;12.35;81.37
54882;BME280;40775;51.448;4.742;2022-09-27T04:45:22;99794.53;;;12.32;80.88
54882;BME280;40775;51.448;4.742;2022-09-27T04:47:49;99786.66;;;12.35;80.93
54882;BME280;40775;51.448;4.742;2022-09-27T04:50:17;99795.41;;;12.31;80.52
54882;BME280;40775;51.448;4.742;2022-09-27T04:52:53;99793.66;;;12.30;80.84
54882;BME280;40775;51.448;4.742;2022-09-27T04:55:21;99788.41;;;12.29;80.51
54882;BME280;40775;51.448;4.742;2022-09-27T04:57:48;99798.06;;;12.27;80.38
54882;BME280;40775;51.448;4.742;2022-09-27T05:00:16;99798.06;;;12.28;80.48
54882;BME280;40775;51.448;4.742;2022-09-27T05:02:44;99799.81;;;12.26;80.65
54882;BME280;40775;51.448;4.742;2022-09-27T05:05:11;99795.44;;;12.27;80.88
54882;BME280;40775;51.448;4.742;2022-09-27T05:07:39;99783.16;;;12.24;81.10
54882;BME280;40775;51.448;4.742;2022-09-27T05:10:07;99786.66;;;12.25;81.18
54882;BME280;40775;51.448;4.742;2022-09-27T05:12:35;99797.22;;;12.23;81.23
54882;BME280;40775;51.448;4.742;2022-09-27T05:15:03;99799.84;;;12.22;81.08
54882;BME280;40775;51.448;4.742;2022-09-27T05:17:30;99798.97;;;12.23;80.83
54882;BME280;40775;51.448;4.742;2022-09-27T05:19:57;99788.44;;;12.24;81.10
54882;BME280;40775;51.448;4.742;2022-09-27T05:22:25;99780.56;;;12.20;81.50
54882;BME280;40775;51.448;4.742;2022-09-27T05:24:52;99791.94;;;12.22;81.34
54882;BME280;40775;51.448;4.742;2022-09-27T05:27:19;99785.81;;;12.21;81.48
54882;BME280;40775;51.448;4.742;2022-09-27T05:29:47;99782.28;;;12.24;81.34
54882;BME280;40775;51.448;4.742;2022-09-27T05:32:14;99792.81;;;12.24;81.02
54882;BME280;40775;51.448;4.742;2022-09-27T05:34:42;99798.09;;;12.24;80.98
54882;BME280;40775;51.448;4.742;2022-09-27T05:37:09;99808.63;;;12.22;81.15
54882;BME280;40775;51.448;4.742;2022-09-27T05:39:36;99808.59;;;12.24;81.23
54882;BME280;40775;51.448;4.742;2022-09-27T05:42:03;99804.25;;;12.20;81.06
54882;BME280;40775;51.448;4.742;2022-09-27T05:44:33;99806.00;;;12.18;81.19
54882;BME280;40775;51.448;4.742;2022-09-27T05:47:01;99802.47;;;12.20;81.29
54882;BME280;40775;51.448;4.742;2022-09-27T05:49:31;99805.09;;;12.23;81.35
54882;BME280;40775;51.448;4.742;2022-09-27T05:51:58;99805.97;;;12.24;81.47
54882;BME280;40775;51.448;4.742;2022-09-27T05:54:26;99806.00;;;12.21;81.47
54882;BME280;40775;51.448;4.742;2022-09-27T05:56:55;99803.34;;;12.21;81.22
54882;BME280;40775;51.448;4.742;2022-09-27T05:59:25;99805.09;;;12.22;81.09
54882;BME280;40775;51.448;4.742;2022-09-27T06:01:53;99790.19;;;12.21;81.53
54882;BME280;40775;51.448;4.742;2022-09-27T06:04:20;99805.09;;;12.22;81.22
54882;BME280;40775;51.448;4.742;2022-09-27T06:06:48;99810.34;;;12.26;81.23
54882;BME280;40775;51.448;4.742;2022-09-27T06:09:16;99806.84;;;12.23;81.58
54882;BME280;40775;51.448;4.742;2022-09-27T06:11:44;99812.13;;;12.23;81.43
54882;BME280;40775;51.448;4.742;2022-09-27T06:14:12;99810.38;;;12.22;81.92
54882;BME280;40775;51.448;4.742;2022-09-27T06:16:39;99810.38;;;12.23;82.03
54882;BME280;40775;51.448;4.742;2022-09-27T06:19:06;99810.38;;;12.22;81.75
54882;BME280;40775;51.448;4.742;2022-09-27T06:21:34;99803.34;;;12.24;82.38
54882;BME280;40775;51.448;4.742;2022-09-27T06:24:02;99797.22;;;12.22;82.15
54882;BME280;40775;51.448;4.742;2022-09-27T06:26:29;99800.69;;;12.27;82.05
54882;BME280;40775;51.448;4.742;2022-09-27T06:28:56;99801.59;;;12.26;82.04
54882;BME280;40775;51.448;4.742;2022-09-27T06:31:23;99800.72;;;12.25;82.24
54882;BME280;40775;51.448;4.742;2022-09-27T06:33:50;99814.72;;;12.27;82.40
54882;BME280;40775;51.448;4.742;2022-09-27T06:36:17;99816.50;;;12.25;81.95
54882;BME280;40775;51.448;4.742;2022-09-27T06:38:45;99813.84;;;12.27;82.49
54882;BME280;40775;51.448;4.742;2022-09-27T06:41:12;99807.72;;;12.25;82.73
54882;BME280;40775;51.448;4.742;2022-09-27T06:43:41;99807.72;;;12.29;82.98
54882;BME280;40775;51.448;4.742;2022-09-27T06:46:08;99805.09;;;12.28;83.29
54882;BME280;40775;51.448;4.742;2022-09-27T06:48:35;99805.97;;;12.28;83.39
54882;BME280;40775;51.448;4.742;2022-09-27T06:51:05;99809.47;;;12.36;83.04
54882;BME280;40775;51.448;4.742;2022-09-27T06:53:32;99796.31;;;12.35;83.26
54882;BME280;40775;51.448;4.742;2022-09-27T06:56:00;99805.06;;;12.37;83.18
54882;BME280;40775;51.448;4.742;2022-09-27T06:58:28;99804.19;;;12.38;83.14
54882;BME280;40775;51.448;4.742;2022-09-27T07:01:14;99803.31;;;12.39;83.08
54882;BME280;40775;51.448;4.742;2022-09-27T07:03:41;99818.19;;;12.43;83.06
54882;BME280;40775;51.448;4.742;2022-09-27T07:06:20;99826.09;;;12.43;83.01
54882;BME280;40775;51.448;4.742;2022-09-27T07:08:52;99826.97;;;12.44;82.73
54882;BME280;40775;51.448;4.742;2022-09-27T07:11:21;99826.09;;;12.46;82.79
54882;BME280;40775;51.448;4.742;2022-09-27T07:13:49;99823.44;;;12.48;82.74
54882;BME280;40775;51.448;4.742;2022-09-27T07:16:17;99819.94;;;12.47;82.94
54882;BME280;40775;51.448;4.742;2022-09-27T07:18:47;99823.41;;;12.52;82.99
54882;BME280;40775;51.448;4.742;2022-09-27T07:21:15;99818.16;;;12.52;83.33
54882;BME280;40775;51.448;4.742;2022-09-27T07:23:42;99818.13;;;12.55;83.37
54882;BME280;40775;51.448;4.742;2022-09-27T07:26:09;99822.50;;;12.56;83.27
54882;BME280;40775;51.448;4.742;2022-09-27T07:28:38;99824.25;;;12.57;83.20
54882;BME280;40775;51.448;4.742;2022-09-27T07:31:08;99825.16;;;12.56;83.07
54882;BME280;40775;51.448;4.742;2022-09-27T07:33:35;99826.00;;;12.60;83.19
54882;BME280;40775;51.448;4.742;2022-09-27T07:36:10;99830.41;;;12.62;83.15
54882;BME280;40775;51.448;4.742;2022-09-27T07:38:37;99836.56;;;12.61;83.26
54882;BME280;40775;51.448;4.742;2022-09-27T07:41:09;99842.69;;;12.63;82.93
54882;BME280;40775;51.448;4.742;2022-09-27T07:43:41;99846.19;;;12.65;83.01
54882;BME280;40775;51.448;4.742;2022-09-27T07:46:11;99840.91;;;12.68;83.28
54882;BME280;40775;51.448;4.742;2022-09-27T07:48:39;99840.06;;;12.66;82.78
54882;BME280;40775;51.448;4.742;2022-09-27T07:51:07;99841.81;;;12.67;82.95
54882;BME280;40775;51.448;4.742;2022-09-27T07:53:38;99846.19;;;12.68;82.92
54882;BME280;40775;51.448;4.742;2022-09-27T07:56:06;99841.78;;;12.69;83.04
54882;BME280;40775;51.448;4.742;2022-09-27T07:58:33;99844.41;;;12.71;83.11
54882;BME280;40775;51.448;4.742;2022-09-27T08:01:00;99838.22;;;12.76;82.99
54882;BME280;40775;51.448;4.742;2022-09-27T08:03:28;99839.13;;;12.75;83.10
54882;BME280;40775;51.448;4.742;2022-09-27T08:05:55;99828.53;;;12.81;83.06
54882;BME280;40775;51.448;4.742;2022-09-27T08:08:22;99831.16;;;12.86;83.73
54882;BME280;40775;51.448;4.742;2022-09-27T08:10:50;99828.50;;;12.87;83.76
54882;BME280;40775;51.448;4.742;2022-09-27T08:13:17;99832.03;;;12.85;83.27
54882;BME280;40775;51.448;4.742;2022-09-27T08:15:46;99831.16;;;12.89;83.63
54882;BME280;40775;51.448;4.742;2022-09-27T08:18:14;99829.38;;;12.94;83.86
54882;BME280;40775;51.448;4.742;2022-09-27T08:20:42;99838.16;;;12.96;83.99
54882;BME280;40775;51.448;4.742;2022-09-27T08:23:09;99844.31;;;12.95;83.58
54882;BME280;40775;51.448;4.742;2022-09-27T08:25:36;99858.38;;;12.92;83.67
54882;BME280;40775;51.448;4.742;2022-09-27T08:28:04;99857.47;;;12.95;83.43
54882;BME280;40775;51.448;4.742;2022-09-27T08:30:31;99871.53;;;12.94;83.56
54882;BME280;40775;51.448;4.742;2022-09-27T08:33:00;99862.75;;;12.93;83.82
54882;BME280;40775;51.448;4.742;2022-09-27T08:35:31;99875.03;;;12.96;83.68
54882;BME280;40775;51.448;4.742;2022-09-27T08:38:01;99870.63;;;12.96;83.61
54882;BME280;40775;51.448;4.742;2022-09-27T08:49:25;99868.00;;;12.98;83.80
54882;BME280;40775;51.448;4.742;2022-09-27T08:51:50;99878.50;;;12.99;84.09
54882;BME280;40775;51.448;4.742;2022-09-27T08:54:23;99879.41;;;12.98;84.17
54882;BME280;40775;51.448;4.742;2022-09-27T08:56:52;99877.63;;;12.99;83.87
54882;BME280;40775;51.448;4.742;2022-09-27T08:59:25;99885.53;;;13.00;83.98
54882;BME280;40775;51.448;4.742;2022-09-27T09:01:54;99878.50;;;12.99;83.75
54882;BME280;40775;51.448;4.742;2022-09-27T09:04:34;99879.38;;;13.00;83.87
54882;BME280;40775;51.448;4.742;2022-09-27T09:07:23;99888.16;;;13.02;84.09
54882;BME280;40775;51.448;4.742;2022-09-27T09:10:26;99884.63;;;13.03;84.11
54882;BME280;40775;51.448;4.742;2022-09-27T09:16:10;99899.53;;;13.07;84.02
54882;BME280;40775;51.448;4.742;2022-09-27T09:33:40;99904.00;;;12.97;83.41
54882;BME280;40775;51.448;4.742;2022-09-27T09:38:56;99894.38;;;12.89;83.17
54882;BME280;40775;51.448;4.742;2022-09-27T09:41:30;99897.91;;;12.88;82.98
54882;BME280;40775;51.448;4.742;2022-09-27T09:44:15;99896.13;;;12.90;82.95
54882;BME280;40775;51.448;4.742;2022-09-27T09:46:51;99897.03;;;12.89;82.54
54882;BME280;40775;51.448;4.742;2022-09-27T09:49:46;99901.38;;;12.87;82.69
54882;BME280;40775;51.448;4.742;2022-09-27T09:52:19;99902.28;;;12.90;82.25
54882;BME280;40775;51.448;4.742;2022-09-27T09:54:55;99909.28;;;12.93;82.44
54882;BME280;40775;51.448;4.742;2022-09-27T10:00:18;99889.97;;;12.85;81.75
54882;BME280;40775;51.448;4.742;2022-09-27T10:02:46;99902.25;;;12.87;82.14
54882;BME280;40775;51.448;4.742;2022-09-27T10:05:21;99894.38;;;12.86;82.07
54882;BME280;40775;51.448;4.742;2022-09-27T10:07:51;99887.38;;;12.88;81.91
54882;BME280;40775;51.448;4.742;2022-09-27T10:10:20;99883.84;;;12.86;81.96
54882;BME280;40775;51.448;4.742;2022-09-27T10:12:48;99877.66;;;12.94;81.60
54882;BME280;40775;51.448;4.742;2022-09-27T10:15:25;99878.53;;;12.98;81.85
54882;BME280;40775;51.448;4.742;2022-09-27T10:17:58;99879.38;;;13.02;81.60
54882;BME280;40775;51.448;4.742;2022-09-27T10:20:37;99878.50;;;12.99;81.68
54882;BME280;40775;51.448;4.742;2022-09-27T10:23:21;99878.50;;;13.03;81.34
54882;BME280;40775;51.448;4.742;2022-09-27T10:25:56;99880.25;;;13.02;81.21
54882;BME280;40775;51.448;4.742;2022-09-27T10:28:41;99884.63;;;13.06;81.32
54882;BME280;40775;51.448;4.742;2022-09-27T10:31:15;99885.47;;;13.08;81.37
54882;BME280;40775;51.448;4.742;2022-09-27T10:33:57;99865.25;;;13.12;81.50
54882;BME280;40775;51.448;4.742;2022-09-27T10:36:30;99860.88;;;13.15;81.12
54882;BME280;40775;51.448;4.742;2022-09-27T10:39:01;99865.22;;;13.28;81.83
54882;BME280;40775;51.448;4.742;2022-09-27T10:41:38;99863.47;;;13.26;81.92
54882;BME280;40775;51.448;4.742;2022-09-27T10:46:47;99859.91;;;13.33;82.42
54882;BME280;40775;51.448;4.742;2022-09-27T10:49:29;99860.78;;;13.32;81.71
54882;BME280;40775;51.448;4.742;2022-09-27T10:52:20;99857.22;;;13.38;81.63
54882;BME280;40775;51.448;4.742;2022-09-27T10:55:05;99852.84;;;13.37;81.84
54882;BME280;40775;51.448;4.742;2022-09-27T10:57:34;99858.91;;;13.51;82.04
54882;BME280;40775;51.448;4.742;2022-09-27T11:00:24;99863.25;;;13.55;82.21
54882;BME280;40775;51.448;4.742;2022-09-27T11:02:56;99859.84;;;13.44;81.49
54882;BME280;40775;51.448;4.742;2022-09-27T11:08:02;99848.22;;;13.68;82.28
54882;BME280;40775;51.448;4.742;2022-09-27T11:11:01;99850.81;;;13.69;82.31
54882;BME280;40775;51.448;4.742;2022-09-27T11:13:28;99848.03;;;13.87;83.43
54882;BME280;40775;51.448;4.742;2022-09-27T11:22:28;99840.97;;;13.89;82.91
54882;BME280;40775;51.448;4.742;2022-09-27T11:25:14;99842.56;;;14.10;83.67
54882;BME280;40775;51.448;4.742;2022-09-27T11:34:04;99840.47;;;14.43;84.00
54882;BME280;40775;51.448;4.742;2022-09-27T11:40:15;99822.69;;;14.59;84.29
54882;BME280;40775;51.448;4.742;2022-09-27T12:04:42;99803.94;;;14.77;77.15
54882;BME280;40775;51.448;4.742;2022-09-27T12:10:04;99790.75;;;14.75;75.14
54882;BME280;40775;51.448;4.742;2022-09-27T12:12:37;99783.75;;;14.73;73.81
54882;BME280;40775;51.448;4.742;2022-09-27T12:15:29;99786.31;;;14.77;72.96
54882;BME280;40775;51.448;4.742;2022-09-27T12:18:30;99795.94;;;14.83;72.69
54882;BME280;40775;51.448;4.742;2022-09-27T12:21:03;99799.41;;;14.88;73.03
54882;BME280;40775;51.448;4.742;2022-09-27T12:23:39;99801.22;;;14.83;73.01
54882;BME280;40775;51.448;4.742;2022-09-27T12:29:01;99774.84;;;14.78;72.58
54882;BME280;40775;51.448;4.742;2022-09-27T12:31:39;99776.66;;;14.75;71.32
54882;BME280;40775;51.448;4.742;2022-09-27T12:34:24;99780.09;;;14.83;71.92
54882;BME280;40775;51.448;4.742;2022-09-27T12:39:49;99761.41;;;14.95;71.40
54882;BME280;40775;51.448;4.742;2022-09-27T12:43:06;99771.00;;;15.02;70.86
54882;BME280;40775;51.448;4.742;2022-09-27T12:46:22;99768.19;;;15.13;70.90
54882;BME280;40775;51.448;4.742;2022-09-27T12:49:17;99761.16;;;15.12;69.48
54882;BME280;40775;51.448;4.742;2022-09-27T12:51:58;99758.41;;;15.18;69.46
54882;BME280;40775;51.448;4.742;2022-09-27T12:57:38;99751.16;;;15.31;68.68
54882;BME280;40775;51.448;4.742;2022-09-27T13:00:21;99753.59;;;15.43;70.57
54882;BME280;40775;51.448;4.742;2022-09-27T13:14:22;99782.38;;;15.07;70.51
54882;BME280;40775;51.448;4.742;2022-09-27T13:16:50;99762.25;;;14.97;71.72
54882;BME280;40775;51.448;4.742;2022-09-27T13:19:41;99761.19;;;15.10;72.98
54882;BME280;40775;51.448;4.742;2022-09-27T13:22:36;99754.00;;;15.19;74.08
54882;BME280;40775;51.448;4.742;2022-09-27T13:28:33;99744.19;;;15.25;73.05
54882;BME280;40775;51.448;4.742;2022-09-27T13:34:43;99748.44;;;15.37;73.05
54882;BME280;40775;51.448;4.742;2022-09-27T13:37:36;99744.13;;;15.30;72.03
54882;BME280;40775;51.448;4.742;2022-09-27T13:43:20;99747.41;;;15.44;72.28
54882;BME280;40775;51.448;4.742;2022-09-27T13:45:58;99738.63;;;15.42;72.33
54882;BME280;40775;51.448;4.742;2022-09-27T13:48:52;99742.03;;;15.49;73.26
54882;BME280;40775;51.448;4.742;2022-09-27T13:51:56;99741.03;;;15.56;74.50
54882;BME280;40775;51.448;4.742;2022-09-27T13:54:48;99751.69;;;15.51;73.94
54882;BME280;40775;51.448;4.742;2022-09-27T14:00:22;99744.81;;;15.42;74.70
54882;BME280;40775;51.448;4.742;2022-09-27T14:03:01;99744.78;;;15.44;75.52
54882;BME280;40775;51.448;4.742;2022-09-27T14:06:05;99738.59;;;15.45;75.32
54882;BME280;40775;51.448;4.742;2022-09-27T14:08:57;99737.75;;;15.43;76.36
54882;BME280;40775;51.448;4.742;2022-09-27T14:11:39;99748.41;;;15.38;75.32
54882;BME280;40775;51.448;4.742;2022-09-27T14:14:18;99736.00;;;15.42;75.30
54882;BME280;40775;51.448;4.742;2022-09-27T14:16:46;99727.09;;;15.46;76.04
54882;BME280;40775;51.448;4.742;2022-09-27T14:19:20;99727.00;;;15.52;77.23
54882;BME280;40775;51.448;4.742;2022-09-27T14:21:48;99739.28;;;15.55;77.05
54882;BME280;40775;51.448;4.742;2022-09-27T14:24:31;99724.25;;;15.57;77.62
54882;BME280;40775;51.448;4.742;2022-09-27T14:27:18;99720.75;;;15.56;78.03
54882;BME280;40775;51.448;4.742;2022-09-27T14:30:04;99729.81;;;15.43;76.55
54882;BME280;40775;51.448;4.742;2022-09-27T14:32:33;99722.69;;;15.46;76.33
54882;BME280;40775;51.448;4.742;2022-09-27T14:35:16;99730.81;;;15.36;75.08
54882;BME280;40775;51.448;4.742;2022-09-27T14:38:08;99731.66;;;15.38;74.79
54882;BME280;40775;51.448;4.742;2022-09-27T14:41:03;99738.78;;;15.33;74.29
54882;BME280;40775;51.448;4.742;2022-09-27T14:43:30;99740.63;;;15.28;74.05
54882;BME280;40775;51.448;4.742;2022-09-27T14:46:05;99758.44;;;15.17;73.73
54882;BME280;40775;51.448;4.742;2022-09-27T14:48:36;99762.09;;;15.06;74.03
54882;BME280;40775;51.448;4.742;2022-09-27T14:53:52;99746.53;;;14.90;74.92
54882;BME280;40775;51.448;4.742;2022-09-27T14:56:32;99729.69;;;14.95;76.13
54882;BME280;40775;51.448;4.742;2022-09-27T14:59:12;99698.13;;;14.88;76.72
54882;BME280;40775;51.448;4.742;2022-09-27T15:01:50;99706.13;;;14.83;76.82
54882;BME280;40775;51.448;4.742;2022-09-27T15:04:19;99740.75;;;14.63;76.64
54882;BME280;40775;51.448;4.742;2022-09-27T15:06:48;99738.06;;;14.65;76.96
54882;BME280;40775;51.448;4.742;2022-09-27T15:09:17;99738.84;;;14.71;77.38
54882;BME280;40775;51.448;4.742;2022-09-27T15:11:52;99716.91;;;14.68;77.24
54882;BME280;40775;51.448;4.742;2022-09-27T15:14:21;99718.50;;;14.78;77.89
54882;BME280;40775;51.448;4.742;2022-09-27T15:16:51;99721.19;;;14.75;77.95
54882;BME280;40775;51.448;4.742;2022-09-27T15:19:24;99728.34;;;14.68;77.61
54882;BME280;40775;51.448;4.742;2022-09-27T15:21:53;99725.75;;;14.65;77.67
54882;BME280;40775;51.448;4.742;2022-09-27T15:24:45;99728.50;;;14.58;77.27
54882;BME280;40775;51.448;4.742;2022-09-27T15:27:19;99725.03;;;14.51;77.31
54882;BME280;40775;51.448;4.742;2022-09-27T15:29:53;99718.00;;;14.50;77.14
54882;BME280;40775;51.448;4.742;2022-09-27T15:32:24;99724.94;;;14.60;77.90
54882;BME280;40775;51.448;4.742;2022-09-27T15:34:53;99718.63;;;14.69;78.27
54882;BME280;40775;51.448;4.742;2022-09-27T15:37:36;99702.78;;;14.69;78.30
54882;BME280;40775;51.448;4.742;2022-09-27T15:43:00;99691.44;;;14.62;78.18
54882;BME280;40775;51.448;4.742;2022-09-27T15:45:34;99690.69;;;14.56;77.98
54882;BME280;40775;51.448;4.742;2022-09-27T15:48:17;99682.00;;;14.46;77.91
54882;BME280;40775;51.448;4.742;2022-09-27T15:50:46;99679.34;;;14.46;77.72
54882;BME280;40775;51.448;4.742;2022-09-27T15:56:04;99685.56;;;14.40;77.75
54882;BME280;40775;51.448;4.742;2022-09-27T15:58:34;99667.06;;;14.43;78.12
54882;BME280;40775;51.448;4.742;2022-09-27T16:01:04;99675.97;;;14.35;77.75
54882;BME280;40775;51.448;4.742;2022-09-27T16:03:32;99678.59;;;14.35;77.82
54882;BME280;40775;51.448;4.742;2022-09-27T16:06:01;99676.78;;;14.38;78.39
54882;BME280;40775;51.448;4.742;2022-09-27T16:08:29;99674.13;;;14.43;78.35
54882;BME280;40775;51.448;4.742;2022-09-27T16:10:58;99670.66;;;14.36;78.57